Terminal Aerodrome Forecast
Issued by NWS Duluth, MN

Home | Current Version | Previous Version | Text Only | Print | Product List | Glossary On
Versions: 1 2 3 4 5 6 7 8 9 10 11 12 13 14 15 16 17 18 19 20 21 22 23 24 25 26 27 28
477
FTUS43 KDLH 040544
TAFINL
TAF
KINL 040544Z 0406/0506 12006KT P6SM SCT025 BKN100
     FM040700 13006KT P6SM BKN025
     FM040900 15007KT P6SM VCSH OVC015
     FM041200 14008KT 5SM -SN OVC012
     FM041500 14008KT 2SM -SN OVC008
     FM042300 15007KT 3SM -SN OVC008
     FM050400 24005KT 5SM -SN OVC015=

USA.gov is the U.S. government's official web portal to all federal, state and local government web resources and services.